sensor_id;sensor_type;location;lat;lon;timestamp;pressure;altitude;pressure_sealevel;temperature;humidity
71476;BME280;59286;59.274;17.974;2023-03-01T00:01:07;102305.41;;;2.21;71.39
71476;BME280;59286;59.274;17.974;2023-03-01T00:03:34;102330.50;;;2.27;71.85
71476;BME280;59286;59.274;17.974;2023-03-01T00:06:00;102299.78;;;1.91;71.96
71476;BME280;59286;59.274;17.974;2023-03-01T00:08:26;102295.00;;;1.88;72.11
71476;BME280;59286;59.274;17.974;2023-03-01T00:11:16;102354.34;;;2.16;72.00
71476;BME280;59286;59.274;17.974;2023-03-01T00:13:43;102379.44;;;2.22;72.47
71476;BME280;59286;59.274;17.974;2023-03-01T00:16:13;102319.25;;;1.80;73.45
71476;BME280;59286;59.274;17.974;2023-03-01T00:18:39;102355.78;;;1.77;73.78
71476;BME280;59286;59.274;17.974;2023-03-01T00:21:05;102338.84;;;1.62;74.35
71476;BME280;59286;59.274;17.974;2023-03-01T00:23:31;102314.59;;;1.22;74.81
71476;BME280;59286;59.274;17.974;2023-03-01T00:25:57;102365.66;;;1.54;75.33
71476;BME280;59286;59.274;17.974;2023-03-01T00:28:23;102303.34;;;1.02;75.21
71476;BME280;59286;59.274;17.974;2023-03-01T00:30:48;102300.97;;;1.01;75.62
71476;BME280;59286;59.274;17.974;2023-03-01T00:33:16;102309.25;;;0.96;75.79
71476;BME280;59286;59.274;17.974;2023-03-01T00:35:41;102385.75;;;1.31;76.65
71476;BME280;59286;59.274;17.974;2023-03-01T00:38:06;102377.38;;;1.23;76.62
71476;BME280;59286;59.274;17.974;2023-03-01T00:40:34;102347.19;;;0.95;76.86
71476;BME280;59286;59.274;17.974;2023-03-01T00:43:00;102298.28;;;0.60;77.02
71476;BME280;59286;59.274;17.974;2023-03-01T00:45:26;102365.44;;;0.94;77.65
71476;BME280;59286;59.274;17.974;2023-03-01T00:47:52;102313.38;;;0.63;77.20
71476;BME280;59286;59.274;17.974;2023-03-01T00:50:18;102321.75;;;0.65;76.88
71476;BME280;59286;59.274;17.974;2023-03-01T00:52:44;102306.31;;;0.71;77.02
71476;BME280;59286;59.274;17.974;2023-03-01T00:55:11;102333.97;;;0.84;77.04
71476;BME280;59286;59.274;17.974;2023-03-01T00:57:36;102333.97;;;0.84;77.27
71476;BME280;59286;59.274;17.974;2023-03-01T01:00:06;102309.06;;;0.70;76.98
71476;BME280;59286;59.274;17.974;2023-03-01T01:02:33;102325.03;;;0.80;77.52
71476;BME280;59286;59.274;17.974;2023-03-01T01:04:58;102348.78;;;0.96;77.41
71476;BME280;59286;59.274;17.974;2023-03-01T01:07:24;102356.34;;;0.98;77.87
71476;BME280;59286;59.274;17.974;2023-03-01T01:09:49;102347.16;;;0.89;77.57
71476;BME280;59286;59.274;17.974;2023-03-01T01:12:15;102382.03;;;1.06;77.71
71476;BME280;59286;59.274;17.974;2023-03-01T01:14:41;102382.38;;;1.03;77.96
71476;BME280;59286;59.274;17.974;2023-03-01T01:17:06;102286.66;;;0.43;77.90
71476;BME280;59286;59.274;17.974;2023-03-01T01:19:31;102363.66;;;0.94;78.16
71476;BME280;59286;59.274;17.974;2023-03-01T01:21:57;102292.66;;;0.50;77.90
71476;BME280;59286;59.274;17.974;2023-03-01T01:24:23;102345.69;;;0.80;78.21
71476;BME280;59286;59.274;17.974;2023-03-01T01:26:48;102272.25;;;0.34;78.41
71476;BME280;59286;59.274;17.974;2023-03-01T01:29:14;102324.94;;;0.67;78.68
71476;BME280;59286;59.274;17.974;2023-03-01T01:31:41;102362.00;;;0.87;78.37
71476;BME280;59286;59.274;17.974;2023-03-01T01:34:08;102286.16;;;0.33;78.69
71476;BME280;59286;59.274;17.974;2023-03-01T01:36:34;102339.19;;;0.63;78.92
71476;BME280;59286;59.274;17.974;2023-03-01T01:39:00;102341.38;;;0.66;79.13
71476;BME280;59286;59.274;17.974;2023-03-01T01:41:27;102346.97;;;0.69;79.04
71476;BME280;59286;59.274;17.974;2023-03-01T01:44:19;102369.28;;;0.77;79.47
71476;BME280;59286;59.274;17.974;2023-03-01T01:46:51;102340.63;;;0.44;79.60
71476;BME280;59286;59.274;17.974;2023-03-01T01:49:29;102333.00;;;0.36;79.85
71476;BME280;59286;59.274;17.974;2023-03-01T01:52:07;102339.63;;;0.24;80.52
71476;BME280;59286;59.274;17.974;2023-03-01T01:54:57;102301.97;;;0.09;80.33
71476;BME280;59286;59.274;17.974;2023-03-01T01:57:33;102317.69;;;0.14;80.99
71476;BME280;59286;59.274;17.974;2023-03-01T02:00:06;102359.22;;;0.40;81.25
71476;BME280;59286;59.274;17.974;2023-03-01T02:02:32;102328.84;;;0.21;80.89
71476;BME280;59286;59.274;17.974;2023-03-01T02:05:09;102295.53;;;-0.02;80.85
71476;BME280;59286;59.274;17.974;2023-03-01T02:07:38;102361.06;;;0.46;80.57
71476;BME280;59286;59.274;17.974;2023-03-01T02:10:05;102317.47;;;0.30;80.14
71476;BME280;59286;59.274;17.974;2023-03-01T02:12:31;102315.44;;;0.25;80.25
71476;BME280;59286;59.274;17.974;2023-03-01T02:14:58;102299.34;;;0.23;80.44
71476;BME280;59286;59.274;17.974;2023-03-01T02:17:23;102314.50;;;0.33;80.01
71476;BME280;59286;59.274;17.974;2023-03-01T02:22:25;102340.47;;;0.52;79.92
71476;BME280;59286;59.274;17.974;2023-03-01T02:25:27;102300.81;;;0.32;79.90
71476;BME280;59286;59.274;17.974;2023-03-01T02:30:31;102279.09;;;-0.01;80.32
71476;BME280;59286;59.274;17.974;2023-03-01T02:33:00;102258.22;;;-0.06;80.33
71476;BME280;59286;59.274;17.974;2023-03-01T02:35:29;102320.41;;;0.27;80.53
71476;BME280;59286;59.274;17.974;2023-03-01T02:37:57;102309.59;;;0.17;80.60
71476;BME280;59286;59.274;17.974;2023-03-01T02:40:28;102297.88;;;0.14;80.61
71476;BME280;59286;59.274;17.974;2023-03-01T02:42:56;102301.13;;;0.02;81.32
71476;BME280;59286;59.274;17.974;2023-03-01T02:45:22;102273.13;;;-0.23;81.53
71476;BME280;59286;59.274;17.974;2023-03-01T02:47:48;102334.28;;;0.26;81.60
71476;BME280;59286;59.274;17.974;2023-03-01T02:53:04;102276.69;;;-0.03;80.75
71476;BME280;59286;59.274;17.974;2023-03-01T02:55:35;102326.25;;;0.35;80.95
71476;BME280;59286;59.274;17.974;2023-03-01T02:58:02;102260.84;;;0.00;80.87
71476;BME280;59286;59.274;17.974;2023-03-01T03:00:37;102279.75;;;0.08;81.10
71476;BME280;59286;59.274;17.974;2023-03-01T03:03:06;102321.22;;;0.27;81.06
71476;BME280;59286;59.274;17.974;2023-03-01T03:05:32;102252.38;;;-0.36;81.33
71476;BME280;59286;59.274;17.974;2023-03-01T03:08:00;102264.34;;;-0.28;81.52
71476;BME280;59286;59.274;17.974;2023-03-01T03:10:29;102247.03;;;-0.34;81.43
71476;BME280;59286;59.274;17.974;2023-03-01T03:13:01;102296.75;;;-0.19;80.86
71476;BME280;59286;59.274;17.974;2023-03-01T03:15:29;102326.47;;;-0.17;81.48
71476;BME280;59286;59.274;17.974;2023-03-01T03:18:02;102308.56;;;-0.25;81.44
71476;BME280;59286;59.274;17.974;2023-03-01T03:20:36;102306.47;;;-0.36;82.23
71476;BME280;59286;59.274;17.974;2023-03-01T03:23:05;102301.50;;;-0.52;82.53
71476;BME280;59286;59.274;17.974;2023-03-01T03:25:30;102273.44;;;-0.76;82.45
71476;BME280;59286;59.274;17.974;2023-03-01T03:27:56;102265.13;;;-0.92;83.12
71476;BME280;59286;59.274;17.974;2023-03-01T03:30:28;102303.28;;;-0.67;83.22
71476;BME280;59286;59.274;17.974;2023-03-01T03:32:53;102281.63;;;-0.87;83.84
71476;BME280;59286;59.274;17.974;2023-03-01T03:35:23;102326.78;;;-0.55;83.78
71476;BME280;59286;59.274;17.974;2023-03-01T03:37:50;102327.94;;;-0.58;83.21
71476;BME280;59286;59.274;17.974;2023-03-01T03:40:34;102246.47;;;-1.09;83.51
71476;BME280;59286;59.274;17.974;2023-03-01T03:43:00;102312.78;;;-0.67;83.76
71476;BME280;59286;59.274;17.974;2023-03-01T03:45:29;102257.28;;;-1.14;83.57
71476;BME280;59286;59.274;17.974;2023-03-01T03:47:54;102290.41;;;-0.96;83.71
71476;BME280;59286;59.274;17.974;2023-03-01T03:50:20;102224.28;;;-1.39;84.32
71476;BME280;59286;59.274;17.974;2023-03-01T03:52:45;102226.16;;;-1.48;84.67
71476;BME280;59286;59.274;17.974;2023-03-01T03:55:12;102235.44;;;-1.47;85.56
71476;BME280;59286;59.274;17.974;2023-03-01T03:57:41;102255.25;;;-1.33;85.38
71476;BME280;59286;59.274;17.974;2023-03-01T04:00:11;102217.41;;;-1.61;85.94
71476;BME280;59286;59.274;17.974;2023-03-01T04:02:45;102232.78;;;-1.53;85.44
71476;BME280;59286;59.274;17.974;2023-03-01T04:05:16;102275.03;;;-1.33;86.07
71476;BME280;59286;59.274;17.974;2023-03-01T04:07:43;102247.16;;;-1.44;85.88
71476;BME280;59286;59.274;17.974;2023-03-01T04:10:14;102229.91;;;-1.58;85.93
71476;BME280;59286;59.274;17.974;2023-03-01T04:12:40;102264.47;;;-1.38;85.74
71476;BME280;59286;59.274;17.974;2023-03-01T04:15:10;102229.91;;;-1.58;85.95
71476;BME280;59286;59.274;17.974;2023-03-01T04:17:46;102233.66;;;-1.61;85.67
71476;BME280;59286;59.274;17.974;2023-03-01T04:20:17;102268.34;;;-1.42;86.03
71476;BME280;59286;59.274;17.974;2023-03-01T04:22:43;102306.34;;;-1.15;86.63
71476;BME280;59286;59.274;17.974;2023-03-01T04:25:09;102242.78;;;-1.58;86.20
71476;BME280;59286;59.274;17.974;2023-03-01T04:27:35;102233.66;;;-1.61;86.03
71476;BME280;59286;59.274;17.974;2023-03-01T04:30:03;102219.91;;;-1.68;86.51
71476;BME280;59286;59.274;17.974;2023-03-01T04:32:29;102215.53;;;-1.67;86.40
71476;BME280;59286;59.274;17.974;2023-03-01T04:34:54;102248.84;;;-1.51;86.19
71476;BME280;59286;59.274;17.974;2023-03-01T04:37:20;102247.03;;;-1.51;85.92
71476;BME280;59286;59.274;17.974;2023-03-01T04:39:45;102307.41;;;-1.10;85.74
71476;BME280;59286;59.274;17.974;2023-03-01T04:42:12;102260.63;;;-1.42;85.84
71476;BME280;59286;59.274;17.974;2023-03-01T04:44:38;102244.31;;;-1.49;86.61
71476;BME280;59286;59.274;17.974;2023-03-01T04:47:03;102248.75;;;-1.43;85.95
71476;BME280;59286;59.274;17.974;2023-03-01T04:49:28;102226.91;;;-1.62;86.26
71476;BME280;59286;59.274;17.974;2023-03-01T04:51:54;102270.84;;;-1.34;85.76
71476;BME280;59286;59.274;17.974;2023-03-01T04:54:23;102304.13;;;-1.18;85.57
71476;BME280;59286;59.274;17.974;2023-03-01T04:56:49;102304.66;;;-1.23;85.95
71476;BME280;59286;59.274;17.974;2023-03-01T04:59:14;102253.31;;;-1.68;86.53
71476;BME280;59286;59.274;17.974;2023-03-01T05:01:40;102250.19;;;-1.78;86.59
71476;BME280;59286;59.274;17.974;2023-03-01T05:04:08;102241.72;;;-1.86;86.98
71476;BME280;59286;59.274;17.974;2023-03-01T05:06:38;102219.28;;;-1.92;86.43
71476;BME280;59286;59.274;17.974;2023-03-01T05:09:04;102243.59;;;-1.80;87.15
71476;BME280;59286;59.274;17.974;2023-03-01T05:11:30;102242.66;;;-1.79;86.46
71476;BME280;59286;59.274;17.974;2023-03-01T05:13:59;102241.84;;;-1.80;86.88
71476;BME280;59286;59.274;17.974;2023-03-01T05:16:24;102234.63;;;-1.84;86.35
71476;BME280;59286;59.274;17.974;2023-03-01T05:18:50;102213.31;;;-2.08;86.76
71476;BME280;59286;59.274;17.974;2023-03-01T05:21:16;102250.41;;;-1.87;86.92
71476;BME280;59286;59.274;17.974;2023-03-01T05:23:42;102228.50;;;-1.98;88.17
71476;BME280;59286;59.274;17.974;2023-03-01T05:26:07;102281.44;;;-1.52;87.09
71476;BME280;59286;59.274;17.974;2023-03-01T05:28:34;102260.53;;;-1.71;87.59
71476;BME280;59286;59.274;17.974;2023-03-01T05:31:00;102239.78;;;-1.84;88.01
71476;BME280;59286;59.274;17.974;2023-03-01T05:33:28;102248.41;;;-1.77;87.72
71476;BME280;59286;59.274;17.974;2023-03-01T05:35:53;102203.94;;;-2.01;87.46
71476;BME280;59286;59.274;17.974;2023-03-01T05:38:20;102305.66;;;-1.46;87.81
71476;BME280;59286;59.274;17.974;2023-03-01T05:40:47;102232.06;;;-1.84;88.65
71476;BME280;59286;59.274;17.974;2023-03-01T05:43:14;102255.81;;;-1.82;87.76
71476;BME280;59286;59.274;17.974;2023-03-01T05:45:41;102215.34;;;-2.03;87.96
71476;BME280;59286;59.274;17.974;2023-03-01T05:48:08;102209.84;;;-2.15;87.80
71476;BME280;59286;59.274;17.974;2023-03-01T05:50:38;102231.56;;;-2.03;88.31
71476;BME280;59286;59.274;17.974;2023-03-01T05:53:07;102262.25;;;-1.86;89.44
71476;BME280;59286;59.274;17.974;2023-03-01T05:55:34;102260.81;;;-1.81;88.42
71476;BME280;59286;59.274;17.974;2023-03-01T05:58:01;102240.34;;;-1.97;88.83
71476;BME280;59286;59.274;17.974;2023-03-01T06:00:28;102253.16;;;-1.89;88.99
71476;BME280;59286;59.274;17.974;2023-03-01T06:02:57;102219.56;;;-2.10;88.69
71476;BME280;59286;59.274;17.974;2023-03-01T06:05:24;102226.56;;;-1.96;88.52
71476;BME280;59286;59.274;17.974;2023-03-01T06:07:50;102201.41;;;-2.09;89.19
71476;BME280;59286;59.274;17.974;2023-03-01T06:10:16;102210.22;;;-2.03;88.71
71476;BME280;59286;59.274;17.974;2023-03-01T06:12:42;102229.50;;;-1.84;88.49
71476;BME280;59286;59.274;17.974;2023-03-01T06:15:10;102274.53;;;-1.51;88.70
71476;BME280;59286;59.274;17.974;2023-03-01T06:17:37;102261.47;;;-1.64;87.95
71476;BME280;59286;59.274;17.974;2023-03-01T06:20:05;102221.16;;;-1.86;88.43
71476;BME280;59286;59.274;17.974;2023-03-01T06:22:31;102289.09;;;-1.44;88.79
71476;BME280;59286;59.274;17.974;2023-03-01T06:24:56;102218.13;;;-1.90;88.59
71476;BME280;59286;59.274;17.974;2023-03-01T06:27:21;102212.84;;;-1.88;88.63
71476;BME280;59286;59.274;17.974;2023-03-01T06:29:47;102241.94;;;-1.73;87.92
71476;BME280;59286;59.274;17.974;2023-03-01T06:32:13;102221.72;;;-1.76;88.76
71476;BME280;59286;59.274;17.974;2023-03-01T06:34:38;102207.63;;;-1.80;88.97
71476;BME280;59286;59.274;17.974;2023-03-01T06:37:04;102234.72;;;-1.55;88.73
71476;BME280;59286;59.274;17.974;2023-03-01T06:39:31;102239.19;;;-1.49;88.26
71476;BME280;59286;59.274;17.974;2023-03-01T06:41:56;102196.59;;;-1.66;88.44
71476;BME280;59286;59.274;17.974;2023-03-01T06:44:22;102275.66;;;-1.17;88.54
71476;BME280;59286;59.274;17.974;2023-03-01T06:46:47;102263.94;;;-1.19;88.46
71476;BME280;59286;59.274;17.974;2023-03-01T06:49:12;102247.81;;;-1.28;88.02
71476;BME280;59286;59.274;17.974;2023-03-01T06:51:38;102228.72;;;-1.33;88.08
71476;BME280;59286;59.274;17.974;2023-03-01T06:54:04;102252.34;;;-1.01;87.61
71476;BME280;59286;59.274;17.974;2023-03-01T06:56:31;102212.53;;;-1.05;86.63
71476;BME280;59286;59.274;17.974;2023-03-01T06:58:56;102221.38;;;-0.92;86.49
71476;BME280;59286;59.274;17.974;2023-03-01T07:01:21;102265.28;;;-0.65;86.40
71476;BME280;59286;59.274;17.974;2023-03-01T07:03:47;102275.47;;;-0.42;86.00
71476;BME280;59286;59.274;17.974;2023-03-01T07:06:12;102258.47;;;-0.37;85.51
71476;BME280;59286;59.274;17.974;2023-03-01T07:08:38;102221.19;;;-0.41;84.68
71476;BME280;59286;59.274;17.974;2023-03-01T07:11:03;102226.13;;;-0.25;84.77
71476;BME280;59286;59.274;17.974;2023-03-01T07:13:29;102217.34;;;-0.09;84.35
71476;BME280;59286;59.274;17.974;2023-03-01T07:15:55;102272.13;;;0.42;83.65
71476;BME280;59286;59.274;17.974;2023-03-01T07:18:21;102238.16;;;0.32;82.79
71476;BME280;59286;59.274;17.974;2023-03-01T07:20:46;102230.25;;;0.40;82.38
71476;BME280;59286;59.274;17.974;2023-03-01T07:23:11;102242.38;;;0.67;82.32
71476;BME280;59286;59.274;17.974;2023-03-01T07:25:37;102219.25;;;0.52;80.50
71476;BME280;59286;59.274;17.974;2023-03-01T07:28:02;102260.44;;;1.01;81.37
71476;BME280;59286;59.274;17.974;2023-03-01T07:30:28;102284.63;;;1.28;80.42
71476;BME280;59286;59.274;17.974;2023-03-01T07:32:57;102288.63;;;1.37;80.21
71476;BME280;59286;59.274;17.974;2023-03-01T07:35:25;102205.59;;;0.92;79.81
71476;BME280;59286;59.274;17.974;2023-03-01T07:37:51;102285.13;;;1.51;78.84
71476;BME280;59286;59.274;17.974;2023-03-01T07:40:16;102270.41;;;1.51;78.45
71476;BME280;59286;59.274;17.974;2023-03-01T07:42:42;102284.59;;;1.62;77.83
71476;BME280;59286;59.274;17.974;2023-03-01T07:45:08;102305.31;;;1.75;77.37
71476;BME280;59286;59.274;17.974;2023-03-01T07:47:33;102249.94;;;1.43;76.68
71476;BME280;59286;59.274;17.974;2023-03-01T07:49:59;102271.06;;;1.66;77.59
71476;BME280;59286;59.274;17.974;2023-03-01T07:52:26;102228.47;;;1.43;77.78
71476;BME280;59286;59.274;17.974;2023-03-01T07:54:51;102290.63;;;2.02;76.63
71476;BME280;59286;59.274;17.974;2023-03-01T07:57:16;102266.38;;;1.89;76.76
71476;BME280;59286;59.274;17.974;2023-03-01T07:59:42;102251.06;;;1.88;77.24
71476;BME280;59286;59.274;17.974;2023-03-01T08:02:09;102271.38;;;2.11;76.68
71476;BME280;59286;59.274;17.974;2023-03-01T08:04:34;102238.13;;;1.88;76.89
71476;BME280;59286;59.274;17.974;2023-03-01T08:07:00;102250.47;;;2.06;76.06
71476;BME280;59286;59.274;17.974;2023-03-01T08:09:25;102212.06;;;1.96;75.63
71476;BME280;59286;59.274;17.974;2023-03-01T08:11:51;102254.47;;;2.28;75.23
71476;BME280;59286;59.274;17.974;2023-03-01T08:14:16;102250.50;;;2.32;74.68
71476;BME280;59286;59.274;17.974;2023-03-01T08:16:42;102240.94;;;2.39;75.30
71476;BME280;59286;59.274;17.974;2023-03-01T08:19:10;102208.72;;;2.22;74.85
71476;BME280;59286;59.274;17.974;2023-03-01T08:21:36;102246.09;;;2.52;74.65
71476;BME280;59286;59.274;17.974;2023-03-01T08:24:07;102262.44;;;2.65;74.59
71476;BME280;59286;59.274;17.974;2023-03-01T08:26:36;102215.66;;;2.41;74.50
71476;BME280;59286;59.274;17.974;2023-03-01T08:29:02;102245.91;;;2.60;73.76
71476;BME280;59286;59.274;17.974;2023-03-01T08:31:34;102287.91;;;2.88;73.62
71476;BME280;59286;59.274;17.974;2023-03-01T08:34:02;102257.25;;;2.72;72.58
71476;BME280;59286;59.274;17.974;2023-03-01T08:36:30;102230.16;;;2.61;72.74
71476;BME280;59286;59.274;17.974;2023-03-01T08:38:56;102234.94;;;2.71;73.75
71476;BME280;59286;59.274;17.974;2023-03-01T08:41:22;102208.66;;;2.67;73.46
71476;BME280;59286;59.274;17.974;2023-03-01T08:43:48;102242.44;;;2.98;72.10
71476;BME280;59286;59.274;17.974;2023-03-01T08:46:14;102260.38;;;3.07;72.01
71476;BME280;59286;59.274;17.974;2023-03-01T08:48:39;102210.81;;;2.83;72.33
71476;BME280;59286;59.274;17.974;2023-03-01T08:51:12;102224.13;;;3.00;72.54
71476;BME280;59286;59.274;17.974;2023-03-01T08:53:39;102283.75;;;3.44;73.03
71476;BME280;59286;59.274;17.974;2023-03-01T08:56:05;102234.78;;;3.23;72.08
71476;BME280;59286;59.274;17.974;2023-03-01T08:58:30;102245.69;;;3.45;70.84
71476;BME280;59286;59.274;17.974;2023-03-01T09:00:56;102268.69;;;3.66;69.87
71476;BME280;59286;59.274;17.974;2023-03-01T09:03:22;102242.69;;;3.41;71.03
71476;BME280;59286;59.274;17.974;2023-03-01T09:05:48;102243.47;;;3.48;70.87
71476;BME280;59286;59.274;17.974;2023-03-01T09:08:15;102252.19;;;3.60;70.85
71476;BME280;59286;59.274;17.974;2023-03-01T09:10:41;102217.06;;;3.64;71.11
71476;BME280;59286;59.274;17.974;2023-03-01T09:13:06;102210.31;;;3.63;69.13
71476;BME280;59286;59.274;17.974;2023-03-01T09:15:32;102223.03;;;3.65;68.79
71476;BME280;59286;59.274;17.974;2023-03-01T09:18:01;102210.47;;;3.68;68.95
71476;BME280;59286;59.274;17.974;2023-03-01T09:20:34;102266.25;;;4.09;69.89
71476;BME280;59286;59.274;17.974;2023-03-01T09:23:00;102186.28;;;3.74;70.10
71476;BME280;59286;59.274;17.974;2023-03-01T09:25:26;102188.47;;;3.77;68.94
71476;BME280;59286;59.274;17.974;2023-03-01T09:27:54;102219.97;;;4.06;69.41
71476;BME280;59286;59.274;17.974;2023-03-01T09:30:29;102216.56;;;4.12;69.25
71476;BME280;59286;59.274;17.974;2023-03-01T09:32:56;102181.91;;;4.00;68.77
71476;BME280;59286;59.274;17.974;2023-03-01T09:35:21;102188.63;;;4.07;68.70
71476;BME280;59286;59.274;17.974;2023-03-01T09:37:48;102185.81;;;4.09;69.29
71476;BME280;59286;59.274;17.974;2023-03-01T09:40:27;102196.53;;;4.19;69.11
71476;BME280;59286;59.274;17.974;2023-03-01T09:43:25;102190.63;;;4.30;68.03
71476;BME280;59286;59.274;17.974;2023-03-01T09:45:48;102182.34;;;4.21;66.98
71476;BME280;59286;59.274;17.974;2023-03-01T09:48:18;102195.00;;;4.36;68.36
71476;BME280;59286;59.274;17.974;2023-03-01T09:50:47;102179.06;;;4.32;68.55
71476;BME280;59286;59.274;17.974;2023-03-01T09:53:19;102181.97;;;4.18;68.46
71476;BME280;59286;59.274;17.974;2023-03-01T10:06:49;102205.13;;;4.80;66.63
71476;BME280;59286;59.274;17.974;2023-03-01T10:09:17;102143.78;;;4.43;68.57
71476;BME280;59286;59.274;17.974;2023-03-01T10:11:50;102176.47;;;4.68;67.22
71476;BME280;59286;59.274;17.974;2023-03-01T10:14:50;102202.25;;;4.88;66.75
71476;BME280;59286;59.274;17.974;2023-03-01T10:19:51;102142.38;;;4.47;67.27
71476;BME280;59286;59.274;17.974;2023-03-01T10:22:24;102171.50;;;4.67;66.18
71476;BME280;59286;59.274;17.974;2023-03-01T10:24:58;102176.69;;;4.85;67.26
71476;BME280;59286;59.274;17.974;2023-03-01T10:27:29;102159.09;;;4.69;65.24
71476;BME280;59286;59.274;17.974;2023-03-01T10:30:29;102160.91;;;4.68;66.30
71476;BME280;59286;59.274;17.974;2023-03-01T10:32:50;102152.75;;;4.65;66.75
71476;BME280;59286;59.274;17.974;2023-03-01T10:35:19;102129.09;;;4.55;67.83
71476;BME280;59286;59.274;17.974;2023-03-01T10:38:14;102129.66;;;4.57;67.57
71476;BME280;59286;59.274;17.974;2023-03-01T10:41:13;102197.47;;;5.03;66.32
71476;BME280;59286;59.274;17.974;2023-03-01T10:43:47;102193.78;;;5.11;67.19
71476;BME280;59286;59.274;17.974;2023-03-01T10:51:45;102142.16;;;4.84;66.18
71476;BME280;59286;59.274;17.974;2023-03-01T10:54:20;102134.13;;;4.86;66.66
71476;BME280;59286;59.274;17.974;2023-03-01T10:56:52;102161.75;;;4.99;65.59
71476;BME280;59286;59.274;17.974;2023-03-01T10:59:38;102145.34;;;4.98;66.28
71476;BME280;59286;59.274;17.974;2023-03-01T11:02:21;102131.09;;;4.89;66.21
71476;BME280;59286;59.274;17.974;2023-03-01T11:05:02;102115.94;;;4.86;66.12
71476;BME280;59286;59.274;17.974;2023-03-01T11:07:28;102123.38;;;4.82;66.73
71476;BME280;59286;59.274;17.974;2023-03-01T11:09:54;102107.44;;;4.79;66.67
71476;BME280;59286;59.274;17.974;2023-03-01T11:12:20;102112.28;;;4.75;64.60
71476;BME280;59286;59.274;17.974;2023-03-01T11:14:55;102149.91;;;5.03;66.23
71476;BME280;59286;59.274;17.974;2023-03-01T11:17:27;102172.75;;;5.30;66.10
71476;BME280;59286;59.274;17.974;2023-03-01T11:22:47;102133.53;;;5.02;65.79
71476;BME280;59286;59.274;17.974;2023-03-01T11:25:14;102166.25;;;5.21;66.68
71476;BME280;59286;59.274;17.974;2023-03-01T11:27:43;102160.63;;;5.24;66.18
71476;BME280;59286;59.274;17.974;2023-03-01T11:30:28;102177.88;;;5.37;64.70
71476;BME280;59286;59.274;17.974;2023-03-01T11:33:11;102117.69;;;4.92;66.72
71476;BME280;59286;59.274;17.974;2023-03-01T11:35:42;102118.16;;;5.01;65.85
71476;BME280;59286;59.274;17.974;2023-03-01T11:38:21;102167.47;;;5.37;66.46
71476;BME280;59286;59.274;17.974;2023-03-01T11:52:24;102158.81;;;5.54;66.03
71476;BME280;59286;59.274;17.974;2023-03-01T12:05:58;102143.56;;;5.69;64.54
71476;BME280;59286;59.274;17.974;2023-03-01T12:08:41;102143.25;;;5.77;64.89
71476;BME280;59286;59.274;17.974;2023-03-01T12:12:11;102136.59;;;5.81;63.98
71476;BME280;59286;59.274;17.974;2023-03-01T12:14:22;102124.72;;;5.85;65.04
71476;BME280;59286;59.274;17.974;2023-03-01T12:20:05;102096.31;;;5.72;64.10
71476;BME280;59286;59.274;17.974;2023-03-01T12:25:21;102077.75;;;5.69;63.62
71476;BME280;59286;59.274;17.974;2023-03-01T12:33:17;102106.84;;;6.01;63.79
71476;BME280;59286;59.274;17.974;2023-03-01T12:38:37;102037.38;;;5.55;64.79
71476;BME280;59286;59.274;17.974;2023-03-01T12:41:31;102115.22;;;6.03;64.49
71476;BME280;59286;59.274;17.974;2023-03-01T12:44:21;102058.53;;;5.70;63.84
71476;BME280;59286;59.274;17.974;2023-03-01T12:47:45;102103.25;;;6.02;64.82
71476;BME280;59286;59.274;17.974;2023-03-01T12:50:11;102025.84;;;5.62;63.67
71476;BME280;59286;59.274;17.974;2023-03-01T12:52:44;102023.59;;;5.66;63.66
71476;BME280;59286;59.274;17.974;2023-03-01T12:55:40;102026.19;;;5.77;62.84
71476;BME280;59286;59.274;17.974;2023-03-01T12:58:34;102085.47;;;6.22;63.07
71476;BME280;59286;59.274;17.974;2023-03-01T13:06:32;102045.53;;;6.05;63.83
71476;BME280;59286;59.274;17.974;2023-03-01T13:09:12;102081.28;;;6.21;62.94
71476;BME280;59286;59.274;17.974;2023-03-01T13:11:41;102012.31;;;5.83;62.85
71476;BME280;59286;59.274;17.974;2023-03-01T13:16:54;102003.47;;;5.84;63.28
71476;BME280;59286;59.274;17.974;2023-03-01T13:19:22;102037.38;;;6.13;63.36
71476;BME280;59286;59.274;17.974;2023-03-01T13:21:49;102007.63;;;5.97;64.40
71476;BME280;59286;59.274;17.974;2023-03-01T13:32:37;101982.19;;;5.87;63.04
71476;BME280;59286;59.274;17.974;2023-03-01T13:37:44;102052.28;;;6.29;63.47
71476;BME280;59286;59.274;17.974;2023-03-01T13:42:46;102021.53;;;6.03;63.65
71476;BME280;59286;59.274;17.974;2023-03-01T13:45:34;102049.59;;;6.24;63.73
71476;BME280;59286;59.274;17.974;2023-03-01T13:48:08;101985.16;;;5.91;62.87
71476;BME280;59286;59.274;17.974;2023-03-01T13:50:38;102017.34;;;6.13;63.06
71476;BME280;59286;59.274;17.974;2023-03-01T13:53:14;101976.97;;;5.87;62.97
71476;BME280;59286;59.274;17.974;2023-03-01T13:55:44;101997.78;;;5.99;62.27
71476;BME280;59286;59.274;17.974;2023-03-01T14:00:56;102001.66;;;5.97;63.35
71476;BME280;59286;59.274;17.974;2023-03-01T14:03:21;101979.38;;;5.89;63.67
71476;BME280;59286;59.274;17.974;2023-03-01T14:08:28;101950.41;;;5.74;63.33
71476;BME280;59286;59.274;17.974;2023-03-01T14:11:02;102003.88;;;6.05;63.01
71476;BME280;59286;59.274;17.974;2023-03-01T14:21:31;102030.78;;;6.22;63.49
71476;BME280;59286;59.274;17.974;2023-03-01T14:24:00;101975.28;;;5.93;63.70
71476;BME280;59286;59.274;17.974;2023-03-01T14:26:25;102041.72;;;6.47;64.20
71476;BME280;59286;59.274;17.974;2023-03-01T14:28:51;101977.59;;;6.18;63.66
71476;BME280;59286;59.274;17.974;2023-03-01T14:31:34;102003.09;;;6.44;62.77
71476;BME280;59286;59.274;17.974;2023-03-01T14:33:59;102027.47;;;6.66;62.87
71476;BME280;59286;59.274;17.974;2023-03-01T14:36:31;102001.06;;;6.46;62.60
71476;BME280;59286;59.274;17.974;2023-03-01T14:38:57;101998.38;;;6.41;62.88